createdAt,value
2022-08-04T00:02:54.623Z,23.40
2022-08-04T00:08:06.947Z,23.33
2022-08-04T00:13:12.569Z,23.09
2022-08-04T00:18:18.521Z,22.95
2022-08-04T00:23:21.579Z,22.91
2022-08-04T00:28:26.352Z,22.84
2022-08-04T00:33:30.820Z,22.72
2022-08-04T00:38:35.444Z,22.52
2022-08-04T00:43:50.982Z,22.57
2022-08-04T00:49:30.261Z,22.50
2022-08-04T00:54:39.678Z,22.18
2022-08-04T01:00:04.948Z,22.02
2022-08-04T01:05:16.693Z,21.90
2022-08-04T01:10:29.998Z,22.00
2022-08-04T01:16:00.159Z,22.12
2022-08-04T01:21:32.366Z,22.08
2022-08-04T01:26:57.699Z,22.12
2022-08-04T01:32:08.438Z,21.92
2022-08-04T01:37:34.573Z,21.84
2022-08-04T01:42:39.954Z,21.88
2022-08-04T01:47:51.528Z,21.92
2022-08-04T01:52:56.059Z,21.88
2022-08-04T01:58:01.691Z,21.78
2022-08-04T02:03:05.957Z,21.58
2022-08-04T02:08:21.961Z,21.40
2022-08-04T02:13:30.625Z,21.25
2022-08-04T02:18:46.039Z,21.19
2022-08-04T02:23:55.073Z,21.25
2022-08-04T02:29:04.716Z,21.24
2022-08-04T02:34:18.445Z,21.23
2022-08-04T02:39:23.088Z,21.21
2022-08-04T02:44:29.381Z,21.15
2022-08-04T02:49:37.785Z,21.11
2022-08-04T02:54:46.626Z,21.09
2022-08-04T03:00:06.596Z,21.04
2022-08-04T03:05:18.039Z,20.95
2022-08-04T03:10:35.233Z,20.79
2022-08-04T03:16:02.281Z,20.73
2022-08-04T03:21:33.487Z,20.73
2022-08-04T03:26:59.271Z,20.69
2022-08-04T03:32:44.949Z,20.62
2022-08-04T03:38:15.709Z,20.64
2022-08-04T03:43:56.825Z,20.53
2022-08-04T03:49:38.569Z,20.48
2022-08-04T03:55:06.296Z,20.48
2022-08-04T04:00:13.532Z,20.46
2022-08-04T04:05:58.762Z,20.35
2022-08-04T04:11:31.406Z,20.31
2022-08-04T04:16:45.137Z,20.28
2022-08-04T04:22:09.631Z,20.17
2022-08-04T04:27:19.418Z,19.99
2022-08-04T04:32:28.223Z,19.84
2022-08-04T04:37:49.074Z,19.80
2022-08-04T04:43:20.030Z,19.73
2022-08-04T04:48:34.997Z,19.79
2022-08-04T04:53:48.667Z,19.92
2022-08-04T04:58:55.361Z,19.99
2022-08-04T05:04:13.199Z,20.06
2022-08-04T05:09:39.881Z,20.19
2022-08-04T05:14:47.451Z,20.32
2022-08-04T05:19:58.754Z,20.43
2022-08-04T05:25:07.393Z,20.57
2022-08-04T05:30:13.526Z,20.70
2022-08-04T05:35:47.929Z,20.87
2022-08-04T05:40:47.075Z,21.02
2022-08-04T05:45:53.091Z,21.17
2022-08-04T05:51:00.708Z,21.37
2022-08-04T05:56:07.275Z,21.65
2022-08-04T06:01:12.794Z,21.80
2022-08-04T06:06:16.380Z,21.90
2022-08-04T06:11:20.676Z,22.12
2022-08-04T06:16:30.186Z,22.36
2022-08-04T06:21:35.438Z,22.51
2022-08-04T06:26:40.327Z,22.54
2022-08-04T06:32:26.968Z,22.71
2022-08-04T06:37:42.876Z,22.93
2022-08-04T06:42:45.515Z,23.11
2022-08-04T06:47:51.010Z,23.22
2022-08-04T06:52:53.967Z,23.36
2022-08-04T06:58:02.777Z,23.51
2022-08-04T07:03:08.362Z,23.71
2022-08-04T07:08:12.169Z,23.84
2022-08-04T07:13:15.461Z,23.97
2022-08-04T07:18:19.819Z,24.16
2022-08-04T07:23:25.330Z,24.34
2022-08-04T07:28:29.842Z,24.53
2022-08-04T07:33:34.525Z,24.67
2022-08-04T07:38:37.890Z,24.80
2022-08-04T07:43:52.647Z,24.95
2022-08-04T07:48:58.231Z,24.93
2022-08-04T07:54:03.401Z,24.97
2022-08-04T07:59:07.284Z,25.19
2022-08-04T08:04:12.606Z,25.44
2022-08-04T08:09:16.940Z,25.66
2022-08-04T08:14:20.650Z,25.76
2022-08-04T08:19:25.846Z,25.90
2022-08-04T08:24:29.348Z,26.01
2022-08-04T08:29:35.428Z,25.90
2022-08-04T08:34:40.339Z,26.19
2022-08-04T08:39:51.254Z,26.45
2022-08-04T08:45:21.670Z,26.77
2022-08-04T08:50:53.335Z,26.90
2022-08-04T08:56:12.666Z,27.02
2022-08-04T09:01:38.779Z,27.11
2022-08-04T09:07:00.354Z,27.33
2022-08-04T09:12:10.530Z,27.45
2022-08-04T09:17:21.885Z,27.55
2022-08-04T09:22:38.805Z,27.72
2022-08-04T09:27:47.840Z,27.85
2022-08-04T09:33:02.548Z,28.14
2022-08-04T09:38:16.236Z,28.53
2022-08-04T09:43:28.261Z,28.70
2022-08-04T09:48:56.174Z,28.85
2022-08-04T09:54:30.827Z,29.07
2022-08-04T09:59:41.572Z,29.40
2022-08-04T10:04:45.324Z,29.50
2022-08-04T10:10:11.561Z,29.55
2022-08-04T10:15:18.334Z,29.62
2022-08-04T10:20:44.937Z,29.80
2022-08-04T10:26:08.481Z,30.13
2022-08-04T10:31:18.442Z,30.32
2022-08-04T10:36:25.042Z,30.54
2022-08-04T10:41:39.457Z,30.69
2022-08-04T10:46:48.606Z,30.91
2022-08-04T10:52:00.556Z,31.06
2022-08-04T10:57:12.154Z,31.29
2022-08-04T11:02:28.340Z,31.41
2022-08-04T11:07:34.332Z,31.49
2022-08-04T11:12:41.583Z,31.59
2022-08-04T11:17:48.807Z,31.71
2022-08-04T11:23:08.173Z,31.64
2022-08-04T11:28:20.193Z,31.84
2022-08-04T11:33:32.468Z,31.95
2022-08-04T11:38:45.268Z,32.24
2022-08-04T11:44:02.378Z,32.56
2022-08-04T11:49:09.706Z,32.71
2022-08-04T11:54:13.739Z,32.88
2022-08-04T11:59:20.628Z,33.03
2022-08-04T12:04:37.244Z,33.11
2022-08-04T12:09:48.200Z,33.29
2022-08-04T12:14:59.842Z,33.38
2022-08-04T12:20:31.866Z,33.50
2022-08-04T12:25:34.345Z,33.68
2022-08-04T12:30:59.817Z,33.77
2022-08-04T12:36:20.956Z,33.97
2022-08-04T12:41:28.993Z,34.19
2022-08-04T12:46:34.221Z,34.30
2022-08-04T12:52:07.936Z,34.51
2022-08-04T12:57:09.600Z,34.53
2022-08-04T13:02:17.959Z,34.69
2022-08-04T13:07:26.109Z,34.75
2022-08-04T13:12:32.400Z,34.88
2022-08-04T13:17:50.747Z,35.11
2022-08-04T13:22:59.425Z,35.32
2022-08-04T13:28:03.318Z,35.46
2022-08-04T13:33:08.740Z,35.61
2022-08-04T13:38:13.382Z,35.62
2022-08-04T13:44:16.043Z,35.78
2022-08-04T13:49:23.577Z,36.05
2022-08-04T13:54:17.565Z,36.30
2022-08-04T13:59:23.840Z,36.60
2022-08-04T14:04:29.310Z,36.69
2022-08-04T14:09:36.028Z,36.91
2022-08-04T14:14:47.354Z,37.32
2022-08-04T14:19:54.187Z,37.53
2022-08-04T14:24:58.199Z,38.41
2022-08-04T14:30:01.097Z,38.75
2022-08-04T14:35:13.391Z,39.43
2022-08-04T14:40:30.490Z,40.56
2022-08-04T14:45:35.686Z,41.93
2022-08-04T14:50:41.865Z,42.80
2022-08-04T14:55:47.813Z,43.62
2022-08-04T15:00:51.445Z,44.42
2022-08-04T15:06:05.531Z,45.04
2022-08-04T15:11:10.986Z,45.40
2022-08-04T15:16:29.360Z,45.47
2022-08-04T15:21:34.409Z,44.63
2022-08-04T15:26:40.522Z,43.52
2022-08-04T15:32:07.281Z,41.61
2022-08-04T15:37:10.105Z,40.14
2022-08-04T15:42:21.222Z,39.13
2022-08-04T15:47:24.672Z,37.91
2022-08-04T15:52:32.004Z,37.51
2022-08-04T15:58:00.714Z,38.05
2022-08-04T16:03:03.532Z,40.04
2022-08-04T16:08:15.850Z,41.42
2022-08-04T16:13:21.973Z,40.93
2022-08-04T16:18:43.755Z,39.54
2022-08-04T16:24:12.835Z,38.85
2022-08-04T16:29:34.185Z,40.78
2022-08-04T16:34:49.395Z,41.46
2022-08-04T16:40:33.278Z,42.25
2022-08-04T16:45:42.318Z,41.44
2022-08-04T16:50:53.389Z,40.31
2022-08-04T16:55:58.330Z,39.47
2022-08-04T17:01:11.237Z,38.79
2022-08-04T17:06:24.817Z,39.17
2022-08-04T17:11:33.789Z,38.86
2022-08-04T17:16:38.996Z,38.50
2022-08-04T17:21:41.800Z,38.34
2022-08-04T17:26:54.527Z,38.55
2022-08-04T17:31:58.074Z,37.96
2022-08-04T17:37:36.460Z,37.26
2022-08-04T17:42:34.299Z,36.54
2022-08-04T17:47:50.045Z,36.10
2022-08-04T17:53:01.356Z,35.85
2022-08-04T18:03:43.167Z,35.10
2022-08-04T18:08:57.969Z,34.67
2022-08-04T18:14:03.478Z,34.30
2022-08-04T18:19:10.171Z,34.16
2022-08-04T18:24:13.568Z,33.94
2022-08-04T18:29:31.343Z,33.57
2022-08-04T18:34:35.339Z,33.21
2022-08-04T18:40:17.281Z,32.95
2022-08-04T18:45:09.802Z,32.65
2022-08-04T18:50:40.009Z,32.46
2022-08-04T18:55:56.667Z,32.25
2022-08-04T19:01:00.430Z,32.10
2022-08-04T19:06:04.426Z,31.97
2022-08-04T19:11:38.362Z,31.67
2022-08-04T19:16:35.151Z,31.51
2022-08-04T19:22:00.874Z,31.23
2022-08-04T19:27:07.818Z,31.10
2022-08-04T19:32:16.222Z,30.91
2022-08-04T19:37:56.098Z,30.70
2022-08-04T19:42:43.421Z,30.56
2022-08-04T19:48:11.231Z,30.48
2022-08-04T19:53:18.679Z,30.50
2022-08-04T19:58:26.333Z,30.41
2022-08-04T20:04:09.558Z,30.22
2022-08-04T20:08:53.759Z,30.10
2022-08-04T20:13:59.359Z,29.91
2022-08-04T20:19:09.279Z,29.67
2022-08-04T20:24:38.951Z,29.44
2022-08-04T20:29:40.948Z,29.37
2022-08-04T20:34:47.386Z,29.28
2022-08-04T20:39:55.346Z,29.17
2022-08-04T20:44:58.635Z,29.09
2022-08-04T20:50:03.168Z,29.09
2022-08-04T20:55:07.480Z,29.03
2022-08-04T21:00:13.296Z,28.90
2022-08-04T21:05:18.022Z,28.75
2022-08-04T21:10:21.942Z,28.71
2022-08-04T21:15:26.419Z,28.68
2022-08-04T21:20:49.843Z,28.67
2022-08-04T21:25:58.021Z,28.56
2022-08-04T21:31:02.472Z,28.52
2022-08-04T21:36:19.952Z,28.53
2022-08-04T21:41:24.933Z,28.40
2022-08-04T21:46:30.627Z,28.15
2022-08-04T21:52:00.329Z,28.08
2022-08-04T21:56:59.858Z,27.84
2022-08-04T22:02:08.531Z,27.81
2022-08-04T22:07:12.766Z,27.66
2022-08-04T22:12:20.976Z,27.17
2022-08-04T22:17:24.343Z,27.00
2022-08-04T22:22:29.404Z,26.89
2022-08-04T22:27:55.394Z,26.82
2022-08-04T22:32:58.483Z,26.74
2022-08-04T22:38:07.842Z,26.92
2022-08-04T22:43:32.856Z,26.97
2022-08-04T22:48:39.478Z,26.88
2022-08-04T22:53:49.177Z,26.75
2022-08-04T22:58:52.118Z,26.21
2022-08-04T23:03:57.497Z,25.74
2022-08-04T23:09:01.697Z,25.61
2022-08-04T23:14:05.466Z,25.63
2022-08-04T23:19:09.938Z,25.65
2022-08-04T23:24:16.436Z,25.57
2022-08-04T23:29:19.256Z,25.61
2022-08-04T23:34:22.087Z,25.59
2022-08-04T23:39:42.191Z,25.61
2022-08-04T23:44:48.896Z,25.59
2022-08-04T23:49:51.767Z,25.56
2022-08-04T23:55:02.418Z,25.50
